Time;durP1;ratioP1;P1;durP2;ratioP2;P2;SDS_P1;SDS_P2;PMS_P1;PMS_P2;Temp;Humidity;BMP_temperature;BMP_pressure;BME280_temperature;BME280_humidity;BME280_pressure;Samples;Min_cycle;Max_cycle;Signal;HPM_P1;HPM_P2
2021/05/20 00:02:11;;;;;;;0.50;0.50;;;;;;;;;;5099971;28;20289;-74
2021/05/20 00:04:39;;;;;;;0.53;0.53;;;;;;;;;;5099900;28;20253;-74
2021/05/20 00:07:06;;;;;;;1.70;0.57;;;;;;;;;;5099564;28;20244;-73
2021/05/20 00:09:34;;;;;;;0.73;0.50;;;;;;;;;;5099842;28;20288;-74
2021/05/20 00:12:02;;;;;;;1.50;0.60;;;;;;;;;;5099570;28;20265;-74
2021/05/20 00:14:30;;;;;;;0.50;0.50;;;;;;;;;;5099415;28;20260;-74
2021/05/20 00:16:57;;;;;;;0.50;0.50;;;;;;;;;;5099665;28;20288;-72
2021/05/20 00:19:25;;;;;;;0.50;0.50;;;;;;;;;;5099661;28;20288;-72
2021/05/20 00:21:53;;;;;;;0.60;0.60;;;;;;;;;;5100862;28;20229;-71
2021/05/20 00:24:20;;;;;;;1.90;0.60;;;;;;;;;;5109553;28;20542;-72
2021/05/20 00:26:48;;;;;;;0.77;0.40;;;;;;;;;;5107020;28;20620;-72
2021/05/20 00:29:16;;;;;;;1.57;0.50;;;;;;;;;;5107394;28;20725;-72
2021/05/20 00:31:44;;;;;;;0.50;0.50;;;;;;;;;;5109913;28;20303;-71
2021/05/20 00:34:11;;;;;;;0.53;0.50;;;;;;;;;;5108141;28;20609;-71
2021/05/20 00:36:39;;;;;;;1.27;0.50;;;;;;;;;;5110143;28;20276;-71
2021/05/20 00:39:06;;;;;;;2.13;0.67;;;;;;;;;;5106845;27;20280;-71
2021/05/20 00:41:34;;;;;;;0.57;0.50;;;;;;;;;;5097869;28;20208;-71
2021/05/20 00:44:01;;;;;;;0.83;0.60;;;;;;;;;;5097669;28;20205;-72
2021/05/20 00:46:30;;;;;;;1.90;0.70;;;;;;;;;;5102729;28;20308;-71
2021/05/20 00:48:57;;;;;;;1.30;0.50;;;;;;;;;;5106675;28;20200;-71
2021/05/20 00:51:25;;;;;;;0.60;0.60;;;;;;;;;;5103682;28;20686;-72
2021/05/20 00:53:52;;;;;;;0.67;0.50;;;;;;;;;;5105610;28;20281;-72
2021/05/20 00:56:21;;;;;;;1.17;0.60;;;;;;;;;;5105627;28;20300;-72
2021/05/20 00:58:49;;;;;;;0.50;0.50;;;;;;;;;;5107052;28;20236;-72
2021/05/20 01:01:16;;;;;;;1.70;0.40;;;;;;;;;;5098087;28;20281;-72
2021/05/20 01:03:48;;;;;;;0.93;0.53;;;;;;;;;;5098560;28;20612;-72
2021/05/20 01:06:19;;;;;;;0.50;0.50;;;;;;;;;;5098106;28;20700;-71
2021/05/20 01:08:46;;;;;;;0.50;0.50;;;;;;;;;;5100449;28;20980;-72
2021/05/20 01:11:13;;;;;;;1.00;0.50;;;;;;;;;;5105454;28;20217;-72
2021/05/20 01:13:41;;;;;;;0.70;0.70;;;;;;;;;;5105433;28;20279;-71
2021/05/20 01:16:11;;;;;;;1.07;0.70;;;;;;;;;;5104819;28;20239;-71
2021/05/20 01:18:39;;;;;;;0.60;0.60;;;;;;;;;;5106261;28;20220;-72
2021/05/20 01:21:07;;;;;;;0.50;0.50;;;;;;;;;;5106200;28;20204;-72
2021/05/20 01:23:35;;;;;;;0.57;0.57;;;;;;;;;;5107818;28;20203;-72
2021/05/20 01:26:04;;;;;;;0.97;0.50;;;;;;;;;;5106877;28;20648;-72
2021/05/20 01:28:34;;;;;;;0.50;0.50;;;;;;;;;;5106837;28;20201;-71
2021/05/20 01:31:03;;;;;;;0.47;0.47;;;;;;;;;;5107023;28;20284;-71
2021/05/20 01:33:31;;;;;;;0.50;0.50;;;;;;;;;;5104413;28;20640;-74
2021/05/20 01:35:59;;;;;;;0.50;0.50;;;;;;;;;;5108594;28;20216;-74
2021/05/20 01:41:15;;;;;;;0.40;0.40;;;;;;;;;;5097679;28;20202;-74
2021/05/20 01:43:42;;;;;;;0.43;0.43;;;;;;;;;;5097681;28;20205;-74
2021/05/20 01:46:10;;;;;;;0.93;0.67;;;;;;;;;;5101648;28;20316;-74
2021/05/20 01:48:39;;;;;;;0.97;0.50;;;;;;;;;;5105958;28;20212;-74
2021/05/20 01:51:08;;;;;;;0.40;0.40;;;;;;;;;;5109098;28;20228;-73
2021/05/20 01:53:37;;;;;;;0.50;0.50;;;;;;;;;;5107286;28;20203;-74
2021/05/20 01:56:05;;;;;;;0.67;0.30;;;;;;;;;;5105719;28;20308;-74
2021/05/20 01:58:32;;;;;;;0.37;0.37;;;;;;;;;;5106724;28;20736;-74
2021/05/20 02:01:00;;;;;;;1.60;0.40;;;;;;;;;;5103044;28;20760;-74
2021/05/20 02:03:28;;;;;;;1.03;0.90;;;;;;;;;;5106768;28;20284;-74
2021/05/20 02:05:57;;;;;;;0.50;0.50;;;;;;;;;;5098417;28;20308;-74
2021/05/20 02:08:25;;;;;;;0.80;0.60;;;;;;;;;;5097960;28;20288;-73
2021/05/20 02:10:53;;;;;;;0.60;0.40;;;;;;;;;;5097697;28;20240;-74
2021/05/20 02:13:21;;;;;;;2.43;0.40;;;;;;;;;;5099176;28;20300;-74
2021/05/20 02:15:48;;;;;;;0.50;0.50;;;;;;;;;;5099967;28;20228;-74
2021/05/20 02:18:16;;;;;;;0.47;0.47;;;;;;;;;;5099878;28;20308;-74
2021/05/20 02:20:44;;;;;;;0.43;0.43;;;;;;;;;;5099996;28;20209;-74
2021/05/20 02:23:11;;;;;;;0.50;0.50;;;;;;;;;;5100222;28;20228;-74
2021/05/20 02:25:39;;;;;;;0.50;0.50;;;;;;;;;;5107665;28;20324;-73
2021/05/20 02:28:08;;;;;;;0.83;0.50;;;;;;;;;;5120758;27;20247;-73
2021/05/20 02:30:36;;;;;;;0.77;0.40;;;;;;;;;;5122226;28;20210;-74
2021/05/20 02:33:03;;;;;;;0.40;0.40;;;;;;;;;;5121986;28;20311;-74
2021/05/20 02:35:31;;;;;;;0.80;0.50;;;;;;;;;;5113929;28;20256;-73
2021/05/20 02:37:59;;;;;;;0.93;0.50;;;;;;;;;;5101006;28;20210;-73
2021/05/20 02:40:26;;;;;;;0.87;0.53;;;;;;;;;;5101357;28;20642;-74
2021/05/20 02:42:58;;;;;;;0.50;0.50;;;;;;;;;;5101673;28;20197;-74
2021/05/20 02:45:27;;;;;;;1.93;0.63;;;;;;;;;;5103547;28;20328;-73
2021/05/20 02:47:55;;;;;;;0.50;0.50;;;;;;;;;;5104381;28;20201;-74
2021/05/20 02:50:24;;;;;;;0.67;0.50;;;;;;;;;;5101528;28;20715;-74
2021/05/20 02:52:51;;;;;;;0.50;0.50;;;;;;;;;;5100959;28;20293;-74
2021/05/20 02:55:20;;;;;;;0.87;0.57;;;;;;;;;;5101265;28;20257;-74
2021/05/20 02:57:49;;;;;;;0.50;0.50;;;;;;;;;;5101548;28;20757;-74
2021/05/20 03:00:18;;;;;;;0.60;0.60;;;;;;;;;;5101670;28;20288;-73
2021/05/20 03:02:48;;;;;;;0.60;0.40;;;;;;;;;;5100865;28;20744;-74
2021/05/20 03:05:16;;;;;;;0.93;0.50;;;;;;;;;;5100884;28;20308;-74
2021/05/20 03:07:44;;;;;;;0.80;0.63;;;;;;;;;;5100515;28;20675;-74
2021/05/20 03:10:12;;;;;;;1.37;0.70;;;;;;;;;;5100779;28;20296;-74
2021/05/20 03:12:39;;;;;;;1.20;0.60;;;;;;;;;;5107855;28;20235;-73
2021/05/20 03:15:08;;;;;;;0.57;0.53;;;;;;;;;;5120950;28;20680;-73
2021/05/20 03:17:36;;;;;;;1.20;1.00;;;;;;;;;;5121334;28;20205;-74
2021/05/20 03:20:05;;;;;;;0.70;0.50;;;;;;;;;;5121219;28;20283;-74
2021/05/20 03:22:33;;;;;;;0.60;0.57;;;;;;;;;;5120893;28;20268;-74
2021/05/20 03:25:01;;;;;;;1.30;0.50;;;;;;;;;;5120226;28;20225;-74
2021/05/20 03:27:28;;;;;;;0.43;0.43;;;;;;;;;;5121109;28;20204;-73
2021/05/20 03:29:56;;;;;;;1.93;0.70;;;;;;;;;;5120990;28;20212;-74
2021/05/20 03:32:23;;;;;;;0.60;0.60;;;;;;;;;;5120948;28;20232;-73
2021/05/20 03:34:52;;;;;;;0.53;0.50;;;;;;;;;;5117866;28;20308;-74
2021/05/20 03:37:20;;;;;;;1.27;0.40;;;;;;;;;;5100052;28;20202;-74
2021/05/20 03:39:47;;;;;;;2.50;0.83;;;;;;;;;;5100465;28;20239;-74
2021/05/20 03:42:15;;;;;;;0.53;0.53;;;;;;;;;;5100302;28;20202;-73
2021/05/20 03:44:42;;;;;;;0.70;0.70;;;;;;;;;;5100213;28;20253;-73
2021/05/20 03:47:10;;;;;;;0.37;0.37;;;;;;;;;;5105815;28;20359;-74
2021/05/20 03:49:37;;;;;;;0.40;0.40;;;;;;;;;;5100195;28;20209;-74
2021/05/20 03:52:06;;;;;;;0.77;0.50;;;;;;;;;;5100068;28;20676;-74
2021/05/20 03:54:39;;;;;;;0.60;0.60;;;;;;;;;;5099917;28;20312;-73
2021/05/20 03:57:07;;;;;;;1.43;0.60;;;;;;;;;;5099801;28;20650;-74
2021/05/20 03:59:34;;;;;;;0.50;0.50;;;;;;;;;;5099731;28;20296;-74
2021/05/20 04:02:02;;;;;;;0.37;0.37;;;;;;;;;;5100064;28;20296;-74
2021/05/20 04:04:29;;;;;;;1.50;0.30;;;;;;;;;;5099944;28;20320;-74
2021/05/20 04:06:57;;;;;;;0.50;0.50;;;;;;;;;;5099666;28;20269;-74
2021/05/20 04:09:25;;;;;;;0.60;0.60;;;;;;;;;;5099653;28;20641;-74
2021/05/20 04:11:53;;;;;;;0.70;0.60;;;;;;;;;;5099635;28;20209;-73
2021/05/20 04:14:21;;;;;;;0.50;0.50;;;;;;;;;;5099424;28;20296;-74
2021/05/20 04:16:48;;;;;;;0.90;0.50;;;;;;;;;;5099413;28;20233;-73
2021/05/20 04:19:16;;;;;;;0.60;0.60;;;;;;;;;;5099755;28;20210;-74
2021/05/20 04:21:43;;;;;;;0.70;0.70;;;;;;;;;;5099090;28;20308;-74
2021/05/20 04:24:11;;;;;;;0.43;0.43;;;;;;;;;;5099694;28;20206;-74
2021/05/20 04:26:39;;;;;;;1.37;0.80;;;;;;;;;;5115295;28;20235;-74
2021/05/20 04:29:09;;;;;;;2.47;0.60;;;;;;;;;;5119700;28;20638;-73
2021/05/20 04:31:36;;;;;;;1.60;0.43;;;;;;;;;;5120084;28;20236;-74
2021/05/20 04:34:04;;;;;;;1.00;0.57;;;;;;;;;;5119415;28;20263;-74
2021/05/20 04:36:32;;;;;;;1.00;0.80;;;;;;;;;;5101248;28;20252;-74
2021/05/20 04:38:59;;;;;;;0.97;0.63;;;;;;;;;;5099497;28;20255;-74
2021/05/20 04:41:27;;;;;;;0.70;0.60;;;;;;;;;;5099619;28;20237;-73
2021/05/20 04:43:54;;;;;;;0.50;0.50;;;;;;;;;;5099218;28;20231;-74
2021/05/20 04:46:23;;;;;;;1.90;0.40;;;;;;;;;;5104555;28;20301;-72
2021/05/20 04:48:50;;;;;;;1.23;0.80;;;;;;;;;;5099352;28;20245;-76
2021/05/20 04:51:19;;;;;;;4.23;0.97;;;;;;;;;;5098775;28;20292;-79
2021/05/20 04:53:47;;;;;;;1.07;1.00;;;;;;;;;;5099299;28;20261;-75
2021/05/20 04:56:14;;;;;;;0.87;0.70;;;;;;;;;;5099045;28;20304;-82
2021/05/20 04:58:41;;;;;;;2.20;0.87;;;;;;;;;;5100062;28;20732;-78
2021/05/20 05:01:09;;;;;;;2.10;0.93;;;;;;;;;;5101390;28;20672;-79
2021/05/20 05:03:37;;;;;;;1.03;0.83;;;;;;;;;;5099609;28;20208;-78
2021/05/20 05:06:05;;;;;;;1.07;0.90;;;;;;;;;;5099036;28;20312;-80
2021/05/20 05:08:33;;;;;;;0.97;0.70;;;;;;;;;;5099130;28;20637;-77
2021/05/20 05:11:00;;;;;;;1.63;0.60;;;;;;;;;;5099072;28;20240;-78
2021/05/20 05:13:28;;;;;;;0.90;0.90;;;;;;;;;;5098809;28;20229;-77
2021/05/20 05:15:56;;;;;;;2.63;0.97;;;;;;;;;;5098506;28;20308;-78
2021/05/20 05:18:24;;;;;;;1.87;0.63;;;;;;;;;;5098643;28;20236;-79
2021/05/20 05:20:52;;;;;;;1.33;0.80;;;;;;;;;;5098378;28;20293;-84
2021/05/20 05:23:20;;;;;;;1.37;0.87;;;;;;;;;;5098496;28;20255;-80
2021/05/20 05:25:48;;;;;;;0.67;0.60;;;;;;;;;;5107072;28;20225;-78
2021/05/20 05:28:15;;;;;;;1.07;0.90;;;;;;;;;;5118765;28;20208;-80
2021/05/20 05:30:44;;;;;;;2.33;0.90;;;;;;;;;;5118974;28;20291;-83
2021/05/20 05:33:12;;;;;;;7.67;1.20;;;;;;;;;;5119041;28;20256;-81
2021/05/20 05:35:39;;;;;;;1.23;0.60;;;;;;;;;;5108780;28;20308;-80
2021/05/20 05:38:08;;;;;;;2.20;0.63;;;;;;;;;;5098125;28;20284;-79
2021/05/20 05:40:35;;;;;;;381.20;237.33;;;;;;;;;;5097979;28;20229;-73
2021/05/20 05:43:03;;;;;;;424.07;284.50;;;;;;;;;;5097792;28;20237;-75
2021/05/20 05:45:30;;;;;;;742.57;581.83;;;;;;;;;;5100567;28;20328;-71
2021/05/20 05:47:58;;;;;;;510.37;371.17;;;;;;;;;;5100290;28;20239;-76
2021/05/20 05:50:26;;;;;;;158.80;82.87;;;;;;;;;;5098661;28;20216;-78
2021/05/20 05:52:54;;;;;;;194.90;76.30;;;;;;;;;;5097647;28;20286;-74
2021/05/20 05:55:22;;;;;;;28.33;17.03;;;;;;;;;;5097799;28;20222;-75
2021/05/20 05:57:50;;;;;;;70.43;40.13;;;;;;;;;;5098041;28;20240;-77
2021/05/20 06:00:18;;;;;;;52.70;30.17;;;;;;;;;;5098051;28;20241;-76
2021/05/20 06:02:46;;;;;;;37.20;23.50;;;;;;;;;;5098697;28;20283;-75
2021/05/20 06:05:14;;;;;;;37.30;24.20;;;;;;;;;;5118209;28;20259;-76
2021/05/20 06:07:42;;;;;;;27.73;14.07;;;;;;;;;;5117736;28;20264;-64
2021/05/20 06:10:10;;;;;;;17.17;12.53;;;;;;;;;;5117957;28;20239;-70
